Aeroporto :
LOGIN :

Iscrizione | Disclaimer

   EN    FR    IT 

 










Sommario :    VFR   VFR Marginale   IFR   IFR Intensivo   IFR Molto Intensivo
Visibilità : 
Base nubi : 
>= 8 km
>= 3000ft
5 / 8 km
1000 / 3000 ft
1500m / 5 km
500 / 1000 ft
800 / 1500m
200 / 500 ft
< 800m
< 200 ft
Simboli :   Temporali  Nebbia  Neve Forte  Precipitazioni Forti  Vento > 20 kt
SIGMETs :   Varie  Temporali  Ghiacco  Turbolenza  Onda orograficha  Ceneri Vulcaniche






- Altitudine del aeroporto : 83 ft
- Codice IATA : LHR


EGLL - London Heathrow

ULTIMO METAR :
  • 100650Z AUTO 07004KT 6000 NCD 10/07 Q1026 NOSIG

METARs OBSOLETI :
  • 100620Z AUTO 06004KT 5000 HZ NCD 09/07 Q1026
  • 100550Z AUTO 05004KT 5000 HZ NCD 09/07 Q1025 NOSIG
  • 100520Z AUTO 04003KT 5000 HZ NCD 09/06 Q1025 NOSIG
  • 100450Z AUTO 04003KT 5000 HZ NCD 08/06 Q1025 NOSIG
  • 100420Z AUTO 05003KT 5000 HZ NCD 08/06 Q1025 NOSIG

TAF TAF EGLL
Valido dal 10 a 06 ore il 11 a 12 ore UTC


100501Z 1006/1112 08008KT CAVOK
TEMPO 1006/1011 6000
BECMG 1012/1015 16010KT
BECMG 1021/1024 10005KT
TEMPO 1100/1110 6000



MetMap, La meteo Aeronautica in un colpo d'occhio ! - Copyright ORBIFLY Dicembre 2007 - Disclaimer

ORBIFLY MET'MAP TEAM :

Programmazione e sviluppo : Alexandra Zaïnal
Concezione : Baudouin d'Aumeries
Aiuto per la programmazione : Marc-Olivier Méhu
Supporto tecnico e logistico : Manuel Goepfert
Aiuto per la traduzione : Arnaldo La Scala

Contatto : metmap@orbifly.com




FONTI E CREDITI :

   NOAA